Time;durP1;ratioP1;P1;durP2;ratioP2;P2;SDS_P1;SDS_P2;PMS_P1;PMS_P2;Temp;Humidity;BMP_temperature;BMP_pressure;BME280_temperature;BME280_humidity;BME280_pressure;Samples;Min_cycle;Max_cycle;Signal;HPM_P1;HPM_P2
2023/01/21 00:00:19;;;;;;;15.45;10.40;;;;;;;;;;5049721;28;20293;-81
2023/01/21 00:02:46;;;;;;;15.27;9.50;;;;;;;;;;5051067;28;20240;-81
2023/01/21 00:05:14;;;;;;;11.73;9.48;;;;;;;;;;5051239;28;20312;-81
2023/01/21 00:07:41;;;;;;;9.90;7.25;;;;;;;;;;5050798;28;20219;-82
2023/01/21 00:10:10;;;;;;;9.13;7.03;;;;;;;;;;5050086;28;20236;-79
2023/01/21 00:12:39;;;;;;;6.50;5.65;;;;;;;;;;5050877;28;20203;-81
2023/01/21 00:15:08;;;;;;;8.13;6.88;;;;;;;;;;5050964;28;20284;-81
2023/01/21 00:17:36;;;;;;;9.30;7.28;;;;;;;;;;5051260;28;20211;-82
2023/01/21 00:20:03;;;;;;;9.73;7.80;;;;;;;;;;5050054;28;20753;-79
2023/01/21 00:22:31;;;;;;;9.75;6.63;;;;;;;;;;5049321;28;20197;-81
2023/01/21 00:24:58;;;;;;;7.05;5.93;;;;;;;;;;5049315;28;20245;-81
2023/01/21 00:27:26;;;;;;;8.73;6.47;;;;;;;;;;5050368;28;20206;-81
2023/01/21 00:29:55;;;;;;;10.38;7.43;;;;;;;;;;5050224;28;20228;-80
2023/01/21 00:32:22;;;;;;;11.63;7.45;;;;;;;;;;5050972;28;20296;-80
2023/01/21 00:34:50;;;;;;;9.02;6.40;;;;;;;;;;5050797;28;20691;-81
2023/01/21 00:37:17;;;;;;;11.45;7.80;;;;;;;;;;5050511;28;20296;-81
2023/01/21 00:39:45;;;;;;;9.27;7.85;;;;;;;;;;5050205;28;20198;-81
2023/01/21 00:42:12;;;;;;;10.68;8.02;;;;;;;;;;5051270;28;20202;-80
2023/01/21 00:44:40;;;;;;;11.90;7.60;;;;;;;;;;5051023;28;20995;-81
2023/01/21 00:47:08;;;;;;;11.90;7.47;;;;;;;;;;5050810;28;20749;-81
2023/01/21 00:49:36;;;;;;;10.07;7.63;;;;;;;;;;5050030;28;20225;-81
2023/01/21 00:52:03;;;;;;;9.77;7.40;;;;;;;;;;5053667;28;20212;-81
2023/01/21 00:54:31;;;;;;;9.45;7.93;;;;;;;;;;5054021;28;20603;-80
2023/01/21 00:56:58;;;;;;;10.50;6.95;;;;;;;;;;5054657;28;20229;-80
2023/01/21 00:59:27;;;;;;;11.45;8.05;;;;;;;;;;5053725;28;20206;-81
2023/01/21 01:01:54;;;;;;;10.60;8.25;;;;;;;;;;5054388;28;20201;-81
2023/01/21 01:04:23;;;;;;;10.27;7.05;;;;;;;;;;5054314;28;20218;-81
2023/01/21 01:06:51;;;;;;;10.00;7.38;;;;;;;;;;5053928;28;20244;-80
2023/01/21 01:09:18;;;;;;;7.78;6.18;;;;;;;;;;5053389;28;20264;-81
2023/01/21 01:11:46;;;;;;;10.13;7.93;;;;;;;;;;5054208;28;20688;-80
2023/01/21 01:14:13;;;;;;;8.98;6.95;;;;;;;;;;5053654;28;20223;-81
2023/01/21 01:16:40;;;;;;;11.98;8.93;;;;;;;;;;5053853;28;20617;-81
2023/01/21 01:19:08;;;;;;;13.90;7.88;;;;;;;;;;5052894;28;20278;-81
2023/01/21 01:21:37;;;;;;;10.50;7.10;;;;;;;;;;5051825;28;20289;-81
2023/01/21 01:24:05;;;;;;;9.90;7.60;;;;;;;;;;5053008;28;20312;-81
2023/01/21 01:26:34;;;;;;;10.65;7.82;;;;;;;;;;5053995;28;20208;-81
2023/01/21 01:29:02;;;;;;;8.73;7.65;;;;;;;;;;5053335;28;20224;-80
2023/01/21 01:31:29;;;;;;;11.30;8.65;;;;;;;;;;5054610;28;20206;-80
2023/01/21 01:33:57;;;;;;;10.05;7.93;;;;;;;;;;5054895;28;20228;-81
2023/01/21 01:36:25;;;;;;;9.23;8.27;;;;;;;;;;5055234;28;20289;-82
2023/01/21 01:38:55;;;;;;;11.43;7.38;;;;;;;;;;5055187;28;20329;-82
2023/01/21 01:41:26;;;;;;;13.73;8.10;;;;;;;;;;5055272;28;20244;-82
2023/01/21 01:43:57;;;;;;;10.93;8.30;;;;;;;;;;5055083;28;20589;-81
2023/01/21 01:46:27;;;;;;;12.20;8.63;;;;;;;;;;5055219;28;20301;-82
2023/01/21 01:49:02;;;;;;;12.98;9.55;;;;;;;;;;5054223;28;20280;-81
2023/01/21 01:51:39;;;;;;;12.13;8.77;;;;;;;;;;5054257;28;20216;-81
2023/01/21 01:54:08;;;;;;;12.45;8.73;;;;;;;;;;5054401;28;20236;-81
2023/01/21 01:56:36;;;;;;;12.55;8.18;;;;;;;;;;5053627;28;20692;-82
2023/01/21 01:59:04;;;;;;;11.57;8.68;;;;;;;;;;5053923;28;20292;-81
2023/01/21 02:01:31;;;;;;;10.38;8.70;;;;;;;;;;5054172;28;20204;-82
2023/01/21 02:04:00;;;;;;;11.13;8.73;;;;;;;;;;5054029;28;20312;-81
2023/01/21 02:06:28;;;;;;;11.23;7.40;;;;;;;;;;5054157;28;20300;-81
2023/01/21 02:08:57;;;;;;;11.35;8.82;;;;;;;;;;5053100;28;20288;-81
2023/01/21 02:11:26;;;;;;;10.88;7.70;;;;;;;;;;5054114;28;20224;-82
2023/01/21 02:13:56;;;;;;;10.68;7.80;;;;;;;;;;5053906;28;20224;-82
2023/01/21 02:16:46;;;;;;;14.05;8.18;;;;;;;;;;5053800;28;20232;-82
2023/01/21 02:20:00;;;;;;;10.27;7.63;;;;;;;;;;5052946;28;20678;-82
2023/01/21 02:22:31;;;;;;;11.10;7.38;;;;;;;;;;5051796;28;20193;-81
2023/01/21 02:26:02;;;;;;;11.85;8.88;;;;;;;;;;5053634;28;20205;-80
2023/01/21 02:28:52;;;;;;;11.40;8.10;;;;;;;;;;5053104;28;20215;-81
2023/01/21 02:32:07;;;;;;;12.02;8.05;;;;;;;;;;5053251;28;20225;-82
2023/01/21 02:34:40;;;;;;;11.35;9.27;;;;;;;;;;5037064;28;20228;-82
2023/01/21 02:37:12;;;;;;;12.90;7.95;;;;;;;;;;5053759;28;20201;-82
2023/01/21 02:40:06;;;;;;;11.88;7.95;;;;;;;;;;5052738;28;20208;-82
2023/01/21 02:42:42;;;;;;;21.60;8.50;;;;;;;;;;5053438;28;20692;-81
2023/01/21 02:45:20;;;;;;;10.00;8.32;;;;;;;;;;5053322;28;20205;-80
2023/01/21 02:47:55;;;;;;;11.93;8.30;;;;;;;;;;5053077;28;20625;-82
2023/01/21 02:50:27;;;;;;;14.57;9.25;;;;;;;;;;5052306;28;20224;-81
2023/01/21 02:52:57;;;;;;;13.02;8.38;;;;;;;;;;5052674;28;20221;-82
2023/01/21 02:55:29;;;;;;;17.10;10.30;;;;;;;;;;5052824;28;20212;-81
2023/01/21 02:57:59;;;;;;;9.80;7.60;;;;;;;;;;5052600;28;20209;-81
2023/01/21 03:00:31;;;;;;;8.98;7.82;;;;;;;;;;5052527;28;20197;-81
2023/01/21 03:03:45;;;;;;;14.55;10.00;;;;;;;;;;5051956;28;20229;-81
2023/01/21 03:06:38;;;;;;;13.05;8.68;;;;;;;;;;5049356;28;20300;-82
2023/01/21 03:09:18;;;;;;;9.77;8.30;;;;;;;;;;5051812;28;20197;-82
2023/01/21 03:12:00;;;;;;;13.63;9.68;;;;;;;;;;5052401;28;20275;-82
2023/01/21 03:17:25;;;;;;;12.65;8.50;;;;;;;;;;5052029;28;20479;-81
2023/01/21 03:19:57;;;;;;;11.70;8.27;;;;;;;;;;5051345;28;20209;-81
2023/01/21 03:22:28;;;;;;;11.13;7.72;;;;;;;;;;5051169;28;20205;-81
2023/01/21 03:24:58;;;;;;;15.15;8.90;;;;;;;;;;5051674;28;20194;-82
2023/01/21 03:27:27;;;;;;;13.07;8.75;;;;;;;;;;5051554;28;20233;-81
2023/01/21 03:29:58;;;;;;;11.15;9.57;;;;;;;;;;5051184;28;20204;-82
2023/01/21 03:32:27;;;;;;;10.80;7.72;;;;;;;;;;5052064;28;20208;-81
2023/01/21 03:34:56;;;;;;;11.63;8.68;;;;;;;;;;5051895;28;20206;-81
2023/01/21 03:37:30;;;;;;;12.63;9.73;;;;;;;;;;5051758;28;20304;-79
2023/01/21 03:40:07;;;;;;;13.90;9.38;;;;;;;;;;5050958;28;20790;-82
2023/01/21 03:42:35;;;;;;;11.52;9.93;;;;;;;;;;5050805;28;20260;-81
2023/01/21 03:45:02;;;;;;;10.27;8.45;;;;;;;;;;5051831;28;20202;-80
2023/01/21 03:47:33;;;;;;;16.55;9.90;;;;;;;;;;5051449;28;20702;-82
2023/01/21 03:50:04;;;;;;;13.75;9.02;;;;;;;;;;5051153;28;20208;-81
2023/01/21 03:52:33;;;;;;;12.75;10.05;;;;;;;;;;5051016;28;20236;-81
2023/01/21 03:55:00;;;;;;;17.73;10.50;;;;;;;;;;5051448;28;20225;-81
2023/01/21 03:57:28;;;;;;;15.77;9.95;;;;;;;;;;5051591;28;20305;-81
2023/01/21 03:59:56;;;;;;;15.25;9.70;;;;;;;;;;5050671;28;20780;-82
2023/01/21 04:02:23;;;;;;;13.43;9.70;;;;;;;;;;5051250;28;20201;-82
2023/01/21 04:04:51;;;;;;;14.52;10.68;;;;;;;;;;5050966;28;20204;-80
2023/01/21 04:07:20;;;;;;;17.13;11.13;;;;;;;;;;5050979;28;20220;-81
2023/01/21 04:09:49;;;;;;;13.35;9.48;;;;;;;;;;5050685;28;20579;-81
2023/01/21 04:12:16;;;;;;;13.93;10.48;;;;;;;;;;5051346;28;20225;-81
2023/01/21 04:14:44;;;;;;;14.55;9.85;;;;;;;;;;5051219;28;20312;-82
2023/01/21 04:17:11;;;;;;;14.57;10.55;;;;;;;;;;5050898;28;20296;-82
2023/01/21 04:19:39;;;;;;;15.50;11.05;;;;;;;;;;5050307;28;20296;-79
2023/01/21 04:22:06;;;;;;;14.00;10.27;;;;;;;;;;5048641;28;20755;-81
2023/01/21 04:24:34;;;;;;;18.80;11.73;;;;;;;;;;5050926;28;20312;-82
2023/01/21 04:27:03;;;;;;;13.70;10.48;;;;;;;;;;5054471;28;20320;-81
2023/01/21 04:29:30;;;;;;;11.60;9.13;;;;;;;;;;5053617;28;20216;-82
2023/01/21 04:31:57;;;;;;;15.43;10.85;;;;;;;;;;5054424;28;20710;-81
2023/01/21 04:34:25;;;;;;;13.90;10.45;;;;;;;;;;5055123;28;20217;-82
2023/01/21 04:36:52;;;;;;;15.98;10.52;;;;;;;;;;5055110;28;20197;-82
2023/01/21 04:39:20;;;;;;;13.18;9.05;;;;;;;;;;5054273;28;20292;-81
2023/01/21 04:41:47;;;;;;;15.32;11.07;;;;;;;;;;5054023;28;20708;-80
2023/01/21 04:44:16;;;;;;;15.68;10.77;;;;;;;;;;5054224;28;20222;-82
2023/01/21 04:46:43;;;;;;;15.32;11.68;;;;;;;;;;5054723;28;20216;-80
2023/01/21 04:49:11;;;;;;;15.27;12.15;;;;;;;;;;5053816;28;20218;-82
2023/01/21 04:51:38;;;;;;;17.33;11.05;;;;;;;;;;5052000;28;20225;-81
2023/01/21 04:54:06;;;;;;;13.77;10.02;;;;;;;;;;5054704;28;20235;-81
2023/01/21 04:56:33;;;;;;;14.73;10.98;;;;;;;;;;5054237;28;20685;-82
2023/01/21 04:59:00;;;;;;;17.67;12.00;;;;;;;;;;5053429;28;20205;-80
2023/01/21 05:01:29;;;;;;;18.75;11.88;;;;;;;;;;5054123;28;20740;-80
2023/01/21 05:03:57;;;;;;;15.65;11.27;;;;;;;;;;5054055;28;20222;-81
2023/01/21 05:06:24;;;;;;;16.73;11.20;;;;;;;;;;5054153;28;20296;-80
2023/01/21 05:08:52;;;;;;;16.35;10.55;;;;;;;;;;5053321;28;20240;-81
2023/01/21 05:11:21;;;;;;;15.90;11.18;;;;;;;;;;5053896;28;20222;-82
2023/01/21 05:13:49;;;;;;;13.90;10.10;;;;;;;;;;5054003;28;20228;-81
2023/01/21 05:16:16;;;;;;;16.48;9.82;;;;;;;;;;5054459;28;20292;-80
2023/01/21 05:18:47;;;;;;;13.32;9.98;;;;;;;;;;5053205;28;20214;-81
2023/01/21 05:21:14;;;;;;;12.88;8.50;;;;;;;;;;5054175;28;20186;-80
2023/01/21 05:23:42;;;;;;;12.50;9.55;;;;;;;;;;5052240;28;20312;-81
2023/01/21 05:26:09;;;;;;;16.50;10.38;;;;;;;;;;5054482;28;20292;-81
2023/01/21 05:28:37;;;;;;;12.23;9.15;;;;;;;;;;5053383;28;20312;-80
2023/01/21 05:31:05;;;;;;;12.82;9.40;;;;;;;;;;5054152;28;20292;-81
2023/01/21 05:33:33;;;;;;;15.27;8.57;;;;;;;;;;5053563;28;20222;-82
2023/01/21 05:36:04;;;;;;;10.68;8.57;;;;;;;;;;5053435;28;20204;-81
2023/01/21 05:38:31;;;;;;;12.75;9.52;;;;;;;;;;5053399;28;20208;-81
2023/01/21 05:40:59;;;;;;;12.07;8.55;;;;;;;;;;5053839;28;20208;-84
2023/01/21 05:43:28;;;;;;;11.38;9.52;;;;;;;;;;5054531;28;20312;-83
2023/01/21 05:45:55;;;;;;;15.00;9.20;;;;;;;;;;5054537;28;20209;-84
2023/01/21 05:48:23;;;;;;;11.75;9.48;;;;;;;;;;5053535;28;20229;-84
2023/01/21 05:50:50;;;;;;;14.02;9.82;;;;;;;;;;5054031;28;20657;-84
2023/01/21 05:53:19;;;;;;;13.73;9.25;;;;;;;;;;5054075;28;20233;-85
2023/01/21 05:55:50;;;;;;;12.38;9.70;;;;;;;;;;5054394;28;20232;-84
2023/01/21 05:58:18;;;;;;;12.75;9.50;;;;;;;;;;5053508;28;20209;-83
2023/01/21 06:00:46;;;;;;;12.77;9.52;;;;;;;;;;5054329;28;20911;-84
2023/01/21 06:03:14;;;;;;;13.55;8.98;;;;;;;;;;5054105;28;20226;-83
2023/01/21 06:05:41;;;;;;;13.15;9.13;;;;;;;;;;5054151;28;20206;-84
2023/01/21 06:08:09;;;;;;;15.45;9.57;;;;;;;;;;5053512;28;20206;-84
2023/01/21 06:10:38;;;;;;;12.73;9.52;;;;;;;;;;5053886;28;20206;-84
2023/01/21 06:13:06;;;;;;;13.73;9.43;;;;;;;;;;5053729;28;20234;-83
2023/01/21 06:15:33;;;;;;;12.48;10.00;;;;;;;;;;5053958;28;20693;-84
2023/01/21 06:18:01;;;;;;;15.80;10.38;;;;;;;;;;5053016;28;20296;-83
2023/01/21 06:20:30;;;;;;;13.85;10.88;;;;;;;;;;5053223;28;20372;-84
2023/01/21 06:22:58;;;;;;;15.70;10.45;;;;;;;;;;5052344;28;20607;-85
2023/01/21 06:25:26;;;;;;;14.43;11.27;;;;;;;;;;5053712;28;20237;-84
2023/01/21 06:27:56;;;;;;;14.60;9.82;;;;;;;;;;5052779;28;20210;-84
2023/01/21 06:30:24;;;;;;;14.40;10.57;;;;;;;;;;5052758;28;20228;-84
2023/01/21 06:32:52;;;;;;;14.95;11.13;;;;;;;;;;5053204;28;20232;-85
2023/01/21 06:35:19;;;;;;;17.45;10.55;;;;;;;;;;5053149;28;20296;-84
2023/01/21 06:37:47;;;;;;;16.17;12.27;;;;;;;;;;5053073;28;20205;-84
2023/01/21 06:40:16;;;;;;;12.52;9.30;;;;;;;;;;5052227;28;20198;-84
2023/01/21 06:42:46;;;;;;;16.52;11.07;;;;;;;;;;5052773;28;20312;-84
2023/01/21 06:45:16;;;;;;;16.50;10.77;;;;;;;;;;5052780;28;20216;-84
2023/01/21 06:47:44;;;;;;;18.33;11.27;;;;;;;;;;5051577;28;20658;-83
2023/01/21 06:50:13;;;;;;;17.92;12.30;;;;;;;;;;5052222;28;20206;-84
2023/01/21 06:52:42;;;;;;;16.30;11.95;;;;;;;;;;5052212;28;20312;-83
2023/01/21 06:55:10;;;;;;;15.38;10.98;;;;;;;;;;5052480;28;20210;-84
2023/01/21 06:57:38;;;;;;;15.00;11.25;;;;;;;;;;5052662;28;20621;-84
2023/01/21 07:00:08;;;;;;;16.98;11.30;;;;;;;;;;5051703;28;20197;-84
2023/01/21 07:02:37;;;;;;;12.88;9.95;;;;;;;;;;5052497;28;20288;-83
2023/01/21 07:05:05;;;;;;;18.33;12.85;;;;;;;;;;5051951;28;20209;-84
2023/01/21 07:07:33;;;;;;;18.67;11.50;;;;;;;;;;5052121;28;20248;-84
2023/01/21 07:10:00;;;;;;;17.90;13.55;;;;;;;;;;5051715;28;20292;-85
2023/01/21 07:12:28;;;;;;;15.88;12.32;;;;;;;;;;5052150;28;20236;-85
2023/01/21 07:14:55;;;;;;;15.10;11.23;;;;;;;;;;5052205;28;20293;-83
2023/01/21 07:17:23;;;;;;;19.08;13.30;;;;;;;;;;5051633;28;20753;-84
2023/01/21 07:19:51;;;;;;;14.27;11.23;;;;;;;;;;5051213;28;20292;-83
2023/01/21 07:22:19;;;;;;;18.63;10.80;;;;;;;;;;5050071;28;20208;-85
2023/01/21 07:24:46;;;;;;;15.82;11.00;;;;;;;;;;5051756;28;20233;-85
2023/01/21 07:27:15;;;;;;;14.15;10.52;;;;;;;;;;5051567;28;20286;-84
2023/01/21 07:29:42;;;;;;;15.40;11.68;;;;;;;;;;5050815;28;20201;-84
2023/01/21 07:32:09;;;;;;;17.23;11.57;;;;;;;;;;5051403;28;20699;-86
2023/01/21 07:34:37;;;;;;;11.82;9.20;;;;;;;;;;5051374;28;20677;-86
2023/01/21 07:37:06;;;;;;;18.02;10.88;;;;;;;;;;5051359;28;20233;-86
2023/01/21 07:39:33;;;;;;;16.55;11.13;;;;;;;;;;5050756;28;20576;-85
2023/01/21 07:42:01;;;;;;;19.88;12.02;;;;;;;;;;5051662;28;20219;-85
2023/01/21 07:44:28;;;;;;;18.90;11.70;;;;;;;;;;5052326;28;20760;-86
2023/01/21 07:46:56;;;;;;;15.05;11.10;;;;;;;;;;5052917;28;20233;-85
2023/01/21 07:49:24;;;;;;;15.88;12.00;;;;;;;;;;5053420;28;20206;-86
2023/01/21 07:51:55;;;;;;;16.92;12.27;;;;;;;;;;5053938;28;20653;-85
2023/01/21 07:54:24;;;;;;;17.08;11.73;;;;;;;;;;5051618;28;20229;-85
2023/01/21 07:56:52;;;;;;;19.52;11.40;;;;;;;;;;5059002;28;20262;-86
2023/01/21 07:59:20;;;;;;;16.23;11.93;;;;;;;;;;5054666;28;20232;-85
2023/01/21 08:01:47;;;;;;;15.20;11.45;;;;;;;;;;5051498;28;20202;-85
2023/01/21 08:04:15;;;;;;;12.90;10.48;;;;;;;;;;5051396;28;20248;-85
2023/01/21 08:06:42;;;;;;;15.20;10.07;;;;;;;;;;5051514;28;20296;-86
2023/01/21 08:09:10;;;;;;;13.18;9.68;;;;;;;;;;5051927;28;20229;-86
2023/01/21 08:11:39;;;;;;;18.42;10.05;;;;;;;;;;5051071;28;20297;-85
2023/01/21 08:14:07;;;;;;;15.40;10.07;;;;;;;;;;5052184;28;20230;-85
2023/01/21 08:16:34;;;;;;;13.20;9.75;;;;;;;;;;5054216;28;20233;-86
2023/01/21 08:19:02;;;;;;;13.70;12.05;;;;;;;;;;5053387;28;20241;-85
2023/01/21 08:21:29;;;;;;;16.27;11.63;;;;;;;;;;5052738;28;20284;-84
2023/01/21 08:23:57;;;;;;;12.88;9.93;;;;;;;;;;5052857;28;20257;-86
2023/01/21 08:26:24;;;;;;;15.38;10.75;;;;;;;;;;5052914;28;20197;-85
2023/01/21 08:28:55;;;;;;;13.98;10.77;;;;;;;;;;5052902;28;20229;-85
2023/01/21 08:31:23;;;;;;;20.92;14.75;;;;;;;;;;5053945;28;20228;-85
2023/01/21 08:33:50;;;;;;;16.92;12.75;;;;;;;;;;5053948;28;20276;-86
2023/01/21 08:36:18;;;;;;;19.92;12.38;;;;;;;;;;5053968;28;20269;-85
2023/01/21 08:38:45;;;;;;;15.95;11.55;;;;;;;;;;5053042;28;20194;-86
2023/01/21 08:41:12;;;;;;;14.95;11.30;;;;;;;;;;5053156;28;20241;-85
2023/01/21 08:43:40;;;;;;;17.13;12.00;;;;;;;;;;5053085;28;20260;-85
2023/01/21 08:46:09;;;;;;;12.73;9.82;;;;;;;;;;5053392;28;20201;-86
2023/01/21 08:48:38;;;;;;;18.13;11.07;;;;;;;;;;5054321;28;20622;-85
2023/01/21 08:51:06;;;;;;;16.33;11.32;;;;;;;;;;5052388;28;20279;-86
2023/01/21 08:53:34;;;;;;;12.30;9.55;;;;;;;;;;5053174;28;20232;-85
2023/01/21 08:56:03;;;;;;;13.80;9.13;;;;;;;;;;5052698;28;20197;-85
2023/01/21 08:58:32;;;;;;;8.75;7.50;;;;;;;;;;5051533;28;20202;-85
2023/01/21 09:01:06;;;;;;;12.82;9.65;;;;;;;;;;5052758;28;20204;-85
2023/01/21 09:03:35;;;;;;;16.67;10.68;;;;;;;;;;5052461;28;20310;-85
2023/01/21 09:06:02;;;;;;;14.40;9.77;;;;;;;;;;5051947;28;20300;-84
2023/01/21 09:08:30;;;;;;;14.32;9.60;;;;;;;;;;5050311;28;20220;-84
2023/01/21 09:11:01;;;;;;;14.15;9.23;;;;;;;;;;5052321;28;20663;-84
2023/01/21 09:13:30;;;;;;;13.00;9.98;;;;;;;;;;5056874;28;20222;-85
2023/01/21 09:15:57;;;;;;;12.55;9.55;;;;;;;;;;5057120;28;20205;-85
2023/01/21 09:18:25;;;;;;;13.38;9.27;;;;;;;;;;5055585;28;20370;-84
2023/01/21 09:20:54;;;;;;;13.43;10.63;;;;;;;;;;5056874;28;20229;-83
2023/01/21 09:23:24;;;;;;;11.98;7.82;;;;;;;;;;5055970;28;20308;-84
2023/01/21 09:25:52;;;;;;;12.85;9.77;;;;;;;;;;5056384;28;20202;-85
2023/01/21 09:28:20;;;;;;;14.48;10.38;;;;;;;;;;5055918;28;20280;-84
2023/01/21 09:30:48;;;;;;;13.45;9.32;;;;;;;;;;5043858;28;20213;-84
2023/01/21 09:33:16;;;;;;;14.32;9.73;;;;;;;;;;5036521;28;20286;-85
2023/01/21 09:35:43;;;;;;;13.93;10.50;;;;;;;;;;5037164;28;20289;-85
2023/01/21 09:38:12;;;;;;;10.70;8.43;;;;;;;;;;5036485;28;20214;-85
2023/01/21 09:40:45;;;;;;;9.63;7.93;;;;;;;;;;5037617;28;20245;-85
2023/01/21 09:43:19;;;;;;;11.88;10.38;;;;;;;;;;5038059;28;20230;-84
2023/01/21 09:45:47;;;;;;;11.70;9.30;;;;;;;;;;5037138;28;20202;-84
2023/01/21 09:48:20;;;;;;;9.90;7.75;;;;;;;;;;5036354;28;20198;-85
2023/01/21 09:50:48;;;;;;;13.80;9.70;;;;;;;;;;5034404;28;20198;-85
2023/01/21 09:53:28;;;;;;;11.82;9.25;;;;;;;;;;5035177;28;20252;-85
2023/01/21 09:55:58;;;;;;;11.40;8.40;;;;;;;;;;5034923;28;20322;-85
2023/01/21 09:58:32;;;;;;;11.95;9.13;;;;;;;;;;5044073;28;20205;-85
2023/01/21 10:01:05;;;;;;;13.60;10.18;;;;;;;;;;5054961;28;20209;-85
2023/01/21 10:03:39;;;;;;;12.98;8.93;;;;;;;;;;5054865;28;20595;-85
2023/01/21 10:06:23;;;;;;;9.70;7.45;;;;;;;;;;5055033;28;20216;-85
2023/01/21 10:09:18;;;;;;;9.18;7.57;;;;;;;;;;5054829;28;20208;-84
2023/01/21 10:12:02;;;;;;;9.20;6.90;;;;;;;;;;5039954;28;20204;-85
2023/01/21 10:14:57;;;;;;;7.93;6.10;;;;;;;;;;5055323;28;20255;-85
2023/01/21 10:17:34;;;;;;;7.18;5.82;;;;;;;;;;5055355;28;20216;-85
2023/01/21 10:20:16;;;;;;;6.95;6.25;;;;;;;;;;5054315;28;20287;-85
2023/01/21 10:22:49;;;;;;;6.43;5.60;;;;;;;;;;5054558;28;20232;-85
2023/01/21 10:25:22;;;;;;;5.40;4.57;;;;;;;;;;5054983;28;20202;-85
2023/01/21 10:27:50;;;;;;;8.75;5.63;;;;;;;;;;5054964;28;20678;-84
2023/01/21 10:30:27;;;;;;;5.72;5.22;;;;;;;;;;5054651;28;20297;-85
2023/01/21 10:32:56;;;;;;;5.85;5.05;;;;;;;;;;5054254;28;20668;-86
2023/01/21 10:35:36;;;;;;;10.60;6.70;;;;;;;;;;5054112;28;20669;-85
2023/01/21 10:38:11;;;;;;;6.50;5.68;;;;;;;;;;5053805;28;20557;-85
2023/01/21 10:40:46;;;;;;;6.80;6.07;;;;;;;;;;5054226;28;20190;-86
2023/01/21 10:43:27;;;;;;;7.60;5.90;;;;;;;;;;5054796;28;20227;-85
2023/01/21 10:46:00;;;;;;;6.45;5.32;;;;;;;;;;5053852;28;20236;-86
2023/01/21 10:48:37;;;;;;;5.28;4.55;;;;;;;;;;5053367;28;20204;-85
2023/01/21 10:51:13;;;;;;;4.18;3.78;;;;;;;;;;5053125;28;20209;-86
2023/01/21 10:53:45;;;;;;;4.70;3.60;;;;;;;;;;5053730;28;20308;-86
2023/01/21 10:56:23;;;;;;;6.43;4.53;;;;;;;;;;5051578;28;20224;-85
2023/01/21 10:58:53;;;;;;;4.32;3.72;;;;;;;;;;5052761;28;20733;-85
2023/01/21 11:01:26;;;;;;;5.85;4.72;;;;;;;;;;5053482;28;20216;-86
2023/01/21 11:03:56;;;;;;;4.68;3.90;;;;;;;;;;5057801;28;20689;-84
2023/01/21 11:06:25;;;;;;;4.70;4.18;;;;;;;;;;5055698;28;20301;-83
2023/01/21 11:08:56;;;;;;;6.57;4.55;;;;;;;;;;5055248;28;20209;-84
2023/01/21 11:11:31;;;;;;;5.60;5.03;;;;;;;;;;5055781;28;20682;-85
2023/01/21 11:13:59;;;;;;;4.93;4.10;;;;;;;;;;5055399;28;20312;-84
2023/01/21 11:16:42;;;;;;;4.97;4.45;;;;;;;;;;5056054;28;20264;-85
2023/01/21 11:19:14;;;;;;;7.15;5.22;;;;;;;;;;5055736;28;20198;-83
2023/01/21 11:22:00;;;;;;;8.38;6.38;;;;;;;;;;5056088;28;20201;-85
2023/01/21 11:24:29;;;;;;;8.38;6.50;;;;;;;;;;5055694;28;20281;-84
2023/01/21 11:27:01;;;;;;;10.63;7.57;;;;;;;;;;5055538;28;20202;-84
2023/01/21 11:29:40;;;;;;;8.93;8.02;;;;;;;;;;5054662;28;20212;-83
2023/01/21 11:32:19;;;;;;;8.63;7.40;;;;;;;;;;5057502;28;20557;-83
2023/01/21 11:34:49;;;;;;;9.05;8.05;;;;;;;;;;5053906;28;20205;-85
2023/01/21 11:37:24;;;;;;;9.10;8.10;;;;;;;;;;5055020;28;20212;-84
2023/01/21 11:39:54;;;;;;;10.32;8.00;;;;;;;;;;5055033;28;20193;-84
2023/01/21 11:42:23;;;;;;;10.00;8.25;;;;;;;;;;5055085;28;20700;-84
2023/01/21 11:44:54;;;;;;;12.93;8.27;;;;;;;;;;5053750;28;20206;-83
2023/01/21 11:47:29;;;;;;;12.02;9.75;;;;;;;;;;5054088;28;20206;-84
2023/01/21 11:50:11;;;;;;;12.25;8.65;;;;;;;;;;5053858;28;20197;-84
2023/01/21 11:52:39;;;;;;;9.15;7.28;;;;;;;;;;5054207;28;20307;-84
2023/01/21 11:55:19;;;;;;;8.25;7.05;;;;;;;;;;5054315;28;20581;-84
2023/01/21 11:57:52;;;;;;;9.02;6.97;;;;;;;;;;5054225;28;20209;-84
2023/01/21 12:00:22;;;;;;;7.60;6.15;;;;;;;;;;5053525;28;20241;-84
2023/01/21 12:02:53;;;;;;;9.02;5.88;;;;;;;;;;5055386;28;20667;-85
2023/01/21 12:05:31;;;;;;;8.90;6.97;;;;;;;;;;5055740;28;20263;-83
2023/01/21 12:07:59;;;;;;;8.25;6.47;;;;;;;;;;5054424;28;20618;-84
2023/01/21 12:10:36;;;;;;;9.88;6.72;;;;;;;;;;5054443;28;20713;-84
2023/01/21 12:13:22;;;;;;;8.68;6.75;;;;;;;;;;5054858;28;20219;-83
2023/01/21 12:16:19;;;;;;;7.22;6.53;;;;;;;;;;5053414;28;20222;-84
2023/01/21 12:19:26;;;;;;;7.65;6.63;;;;;;;;;;5051422;28;20561;-83
2023/01/21 12:22:11;;;;;;;7.40;6.13;;;;;;;;;;5054441;28;20235;-83
2023/01/21 12:25:05;;;;;;;8.00;6.97;;;;;;;;;;5054295;28;20221;-84
2023/01/21 12:27:45;;;;;;;9.13;7.03;;;;;;;;;;5054569;28;20288;-84
2023/01/21 12:30:22;;;;;;;6.95;6.25;;;;;;;;;;5053223;28;20205;-84
2023/01/21 12:32:55;;;;;;;8.57;6.05;;;;;;;;;;5055170;28;20671;-84
2023/01/21 12:35:28;;;;;;;6.80;6.07;;;;;;;;;;5054985;28;20198;-84
2023/01/21 12:38:00;;;;;;;7.95;6.57;;;;;;;;;;5054756;28;21018;-84
2023/01/21 12:40:32;;;;;;;10.73;7.25;;;;;;;;;;5053531;28;20208;-84
2023/01/21 12:43:05;;;;;;;7.78;5.93;;;;;;;;;;5054428;28;20724;-84
2023/01/21 12:45:38;;;;;;;8.02;5.65;;;;;;;;;;5054727;28;20202;-84
2023/01/21 12:48:12;;;;;;;6.68;5.78;;;;;;;;;;5057453;28;20214;-84
2023/01/21 12:50:42;;;;;;;7.88;5.97;;;;;;;;;;5058033;28;20207;-84
2023/01/21 12:53:19;;;;;;;9.27;6.72;;;;;;;;;;5058807;28;20308;-84
2023/01/21 12:56:03;;;;;;;7.22;5.90;;;;;;;;;;5058102;28;20700;-84
2023/01/21 12:58:33;;;;;;;5.60;4.93;;;;;;;;;;5057436;28;20248;-84
2023/01/21 13:01:07;;;;;;;5.60;5.07;;;;;;;;;;5057975;28;20287;-83
2023/01/21 13:03:48;;;;;;;8.02;6.28;;;;;;;;;;5057491;28;20221;-84
2023/01/21 13:06:21;;;;;;;8.32;7.30;;;;;;;;;;5057606;28;20202;-84
2023/01/21 13:08:56;;;;;;;9.82;7.25;;;;;;;;;;5057360;28;20220;-84
2023/01/21 13:11:28;;;;;;;9.35;7.28;;;;;;;;;;5057315;28;20209;-83
2023/01/21 13:14:17;;;;;;;13.15;8.57;;;;;;;;;;5057472;28;20225;-83
2023/01/21 13:16:50;;;;;;;8.65;7.13;;;;;;;;;;5056989;28;20227;-84
2023/01/21 13:19:17;;;;;;;9.02;7.38;;;;;;;;;;5056215;28;20383;-84
2023/01/21 13:21:52;;;;;;;7.75;6.82;;;;;;;;;;5056452;28;20236;-83
2023/01/21 13:24:25;;;;;;;9.75;7.72;;;;;;;;;;5056557;28;20225;-84
2023/01/21 13:27:04;;;;;;;7.55;6.82;;;;;;;;;;5057337;28;20561;-84
2023/01/21 13:29:41;;;;;;;7.75;6.15;;;;;;;;;;5055478;28;20209;-83
2023/01/21 13:32:29;;;;;;;6.60;5.97;;;;;;;;;;5055892;28;20213;-83
2023/01/21 13:35:10;;;;;;;7.95;5.90;;;;;;;;;;5056511;28;20653;-83
2023/01/21 13:37:43;;;;;;;10.40;5.32;;;;;;;;;;5055814;28;20225;-83
2023/01/21 13:40:28;;;;;;;8.98;7.13;;;;;;;;;;5055439;28;20208;-83
2023/01/21 13:43:05;;;;;;;7.80;5.68;;;;;;;;;;5055854;28;20229;-84
2023/01/21 13:45:46;;;;;;;7.68;5.78;;;;;;;;;;5056575;28;20224;-83
2023/01/21 13:48:39;;;;;;;7.15;5.43;;;;;;;;;;5055484;28;20206;-84
2023/01/21 13:51:32;;;;;;;7.07;5.90;;;;;;;;;;5055400;28;20233;-84
2023/01/21 13:54:27;;;;;;;6.28;5.65;;;;;;;;;;5055871;28;20602;-84
2023/01/21 13:57:06;;;;;;;6.20;5.43;;;;;;;;;;5055049;28;20257;-84
2023/01/21 13:59:39;;;;;;;9.30;5.43;;;;;;;;;;5054650;28;20211;-84
2023/01/21 14:02:11;;;;;;;6.22;5.22;;;;;;;;;;5056072;28;20205;-83
2023/01/21 14:04:44;;;;;;;8.57;6.18;;;;;;;;;;5055841;28;20608;-84
2023/01/21 14:07:15;;;;;;;6.68;5.95;;;;;;;;;;5055637;28;20610;-84
2023/01/21 14:09:45;;;;;;;7.93;6.05;;;;;;;;;;5055325;28;20686;-84
2023/01/21 14:12:17;;;;;;;9.05;6.72;;;;;;;;;;5055820;28;20198;-83
2023/01/21 14:15:31;;;;;;;9.05;6.03;;;;;;;;;;5055639;28;20257;-84
2023/01/21 14:18:46;;;;;;;8.45;7.05;;;;;;;;;;5053131;28;20313;-83
2023/01/21 14:21:38;;;;;;;12.43;6.95;;;;;;;;;;5052784;28;20206;-84
2023/01/21 14:24:18;;;;;;;7.15;5.55;;;;;;;;;;5055842;28;20226;-84
2023/01/21 14:27:08;;;;;;;9.15;6.13;;;;;;;;;;5055503;28;20204;-84
2023/01/21 14:29:38;;;;;;;9.82;6.55;;;;;;;;;;5055130;28;20240;-84
2023/01/21 14:32:12;;;;;;;7.35;5.50;;;;;;;;;;5056688;28;20680;-86
2023/01/21 14:34:51;;;;;;;7.03;6.32;;;;;;;;;;5058108;28;20284;-84
2023/01/21 14:37:28;;;;;;;7.80;6.90;;;;;;;;;;5058272;28;20221;-84
2023/01/21 14:40:09;;;;;;;6.88;5.45;;;;;;;;;;5056087;28;20268;-85
2023/01/21 14:42:45;;;;;;;7.05;6.18;;;;;;;;;;5057572;28;20212;-85
2023/01/21 14:45:15;;;;;;;6.72;5.75;;;;;;;;;;5058139;28;20288;-84
2023/01/21 14:47:53;;;;;;;7.70;6.10;;;;;;;;;;5057775;28;20194;-84
2023/01/21 14:50:47;;;;;;;10.23;5.88;;;;;;;;;;5057721;28;20205;-85
2023/01/21 14:53:22;;;;;;;10.05;6.95;;;;;;;;;;5055684;28;20256;-85
2023/01/21 14:56:17;;;;;;;8.20;6.68;;;;;;;;;;5056750;28;20264;-84
2023/01/21 14:58:49;;;;;;;9.70;6.40;;;;;;;;;;5055755;28;20289;-85
2023/01/21 15:01:29;;;;;;;7.45;6.13;;;;;;;;;;5056734;28;20205;-84
2023/01/21 15:03:56;;;;;;;6.93;6.20;;;;;;;;;;5055545;28;20317;-85